Colchester, VT

05:15 EDT le 25 mai 2015 (GMT -0400)
South Bay Circle, Malletts Bay | | Change Station
CLOSE
Current Station
Stations météorologiques personnelles
Location: Colchester, VT
Altitude: 100 ft
Stations météo à proximité

Alt. 100 ft 44.54 °N, 73.21 °W | Updated 10 seconds ago

Scattered Clouds
Nuages épars
61.3 ° F
Paraît 61.3 ° F
N
0.0
Vent Variable Vent de Nord
Gusts 1.0 mph

Aujourd'hui
Haut(e) -- | Bas -- ° F
--% Risque de précip.
Hier
Haut(e) -- | Bas -- ° F
Precip. -- pouce
5:15 AM 8:23 PM
Lune montante, 47% visible
Pression 30.13 pouce
Visibilité 10.0 Miles terrestres
Nuages Nuages épars 12000 ft
Point de rosée 36 ° F
Humidité 39%
Précipitations 0.00 pouce
Profondeur de la couche neigeuse Non disponible.
UV 0.0 sur 12
Pollen 10.50 sur 12
Qualité de l'air Non disponible.
Flu Activity Local Activity
METAR KBTV 250854Z 18010KT 10SM SCT120 18/04 A3013 RMK AO2 SLP202 T01830039 53002 $

More Conditions Fewer Conditions

Pression 30.13 pouce
Visibilité 10.0 Miles terrestres
Nuages Nuages épars 12000 ft
Point de rosée 36 ° F
Humidité 39%
Précipitations 0.00 pouce
Profondeur de la couche neigeuse Non disponible.
UV 0.0 sur 12
Pollen 10.50 sur 12
Qualité de l'air Non disponible.
Flu Activity Local Activity
METAR KBTV 250854Z 18010KT 10SM SCT120 18/04 A3013 RMK AO2 SLP202 T01830039 53002 $

More Conditions Fewer Conditions

10-Day Weather Forecast

Almanac

Astronomie

May. 25, 2015 Lever Coucher
Temps réel
Crépuscule civil
Crépuscule nautique
Crépuscule astronomique
Lune
Durée de lumière visible
Longueur du jour
Tomorrow will be .
, % of the Moon is Illuminated

Extrêmes aujourd'hui

State Highs State Lows

Community

WunderPhotos

Upload Photos

1,823,959 Photos téléchargées !

WunderBlogs® & News

Nearby

Qualité de l'air

  Qualité de l'air Indice de la qualité de l'air Polluant
Not available.

Épaisseur de neige

Station Depth Altitude

Activité sismique

Ville Distance Mag. Time & Date
Minimum magnitude displayed is 2.5.

Températures des eaux côtières

Lieu Température

Stations

Stations météo à proximité

Emplacement de la station Température Refroidissement éolien Point de rosée Humidité Vent Precip. Alt. Mise à jour Type